Repülésmeteorológia

  • METAR LHSM 231215Z 36008KT 3000 BR OVC010 M00/M01 Q1017 RESN=
  • METAR LHSM 231145Z 36007KT 2000 -SN OVC008 00/M01 Q1017=
  • METAR LHSM 231115Z 36007KT 1800 -SN OVC010 00/M01 Q1017=
  • METAR LHSM 231045Z 01004KT 1500 -SN OVC014 00/M01 Q1017=
  • METAR LHSM 231015Z 01005KT 1300 -SN OVC007 M00/M01 Q1017=

  • TAF LHSM 230815Z 2309/2318 02007KT 1500 SN OVC005
  • TAF LHSM 230515Z 2306/2315 02007KT 6000 -SN BKN015 OVC020
  • TAF LHSM 221115Z 2212/2221 36010KT 1000 SN OVC010
  • TAF LHSM 220815Z 2209/2218 36010KT 1000 SN OVC010
  • TAF LHSM 220515Z 2206/2215 01014G25KT 5000 -SN BR BKN015 OVC030